RJOO Airport Information

Runway Information
Runway 14L Length 5997 ft width 150 ft
Elevation 50 ft Threshold 0 ft Heading 135
Runway 32R Length 5997 ft Width 150 ft
Elevation 34 ft Threshold 0 ft Heading 315
Runway 14R Length 9840 ft width 200 ft
Elevation 46 ft Threshold 0 ft Heading 135
Runway 32L Length 9840 ft Width 200 ft
Elevation 31 ft Threshold 0 ft Heading 315
Airport Frequencies
Type APP Name KANSAI APP Frequency 120.45 MHZ
Type ATIS Name ATIS Frequency 128.6 MHZ
Type CLD Name CLNC DEL Frequency 118.8 MHZ
Type DEP Name KANSAI DEP Frequency 119.5 MHZ
Type GCA Name GCA Frequency 127.5 MHZ
Type GND Name GND Frequency 121.7 MHZ
Type TCA Name TCA Frequency 121.1 MHZ
Type TWR Name TWR Frequency 118.1 MHZ
Airport Navaids
Type NDB Name Itami Frequency 211 KHZ
Type VOR-DME Name Osaka Frequency 113900 KHZ
Type NDB Name Osaka Frequency 340 KHZ
Airport Weather Information & NOTAM
ADDS - METARS form results

(1352 UTC 14 December 2019)
Data provider http://aviationweather.gov/metar/data/
 
Forecast for: RJOO (OSAKA INTL/ITAMI, JP)
Text: TAF RJOO 141109Z 1412/1518 33010KT 9999 FEW020
Forecast period: 1200 UTC 14 December 2019 to 1800 UTC 15 December 2019
Forecast type: FROM: standard forecast or significant change
Winds: from the NNW (330 degrees) at 12 MPH (10 knots; 5.1 m/s)
Visibility: 6 or more miles 10+ km)
Ceiling: at least 12,000 feet AGL
Clouds: few clouds at 2000 feet AGL
Weather: no significant weather forecast for this period